Saint Petersburg Beach, Florida
Current Conditions -  °F | °C
As of 1:53 AM on Thursday 27 Nov 2014 (Local Time) from KSPG Reporting Station
Clear Clear  
Wind Chill: 57°   Ceiling: Unl
Heat Index: 57°   Visibility: 10mi
Dew Point: 44°   Wind: 8mph
Humidity: 62%   Direction: 350°N
Pressure: 30.23"   Gusts: NA
Location:  27.7254°N, 82.7422°W
Report Text: KSPG 270653Z AUTO 35007KT 10SM CLR 14/07 A3023 RMK AO2 SLP236 T01390067
Loading
Personal Weather Stations






























Interactive Weather Map New forecast layout! Learn more

10-Day Weather Forecast

Advertisements
Track Severe Weather on mobile